Time;durP1;ratioP1;P1;durP2;ratioP2;P2;SDS_P1;SDS_P2;PMS_P1;PMS_P2;Temp;Humidity;BMP_temperature;BMP_pressure;BME280_temperature;BME280_humidity;BME280_pressure;Samples;Min_cycle;Max_cycle;Signal;HPM_P1;HPM_P2
2022/01/11 00:17:39;;;;;;;6.15;5.10;;;17.30;50.20;;;;;;5072355;28;44847;-88
2022/01/11 00:20:16;;;;;;;7.13;5.03;;;17.20;51.00;;;;;;5068597;28;45208;-86
2022/01/11 00:26:01;;;;;;;6.18;4.95;;;17.00;49.00;;;;;;5064589;28;45073;-86
2022/01/11 00:28:40;;;;;;;5.80;4.68;;;17.00;48.10;;;;;;5063382;28;45303;-86
2022/01/11 00:31:13;;;;;;;6.75;5.05;;;17.00;47.70;;;;;;5061192;28;45104;-86
2022/01/11 00:33:45;;;;;;;6.65;5.10;;;16.90;47.40;;;;;;5053840;28;47627;-87
2022/01/11 00:36:15;;;;;;;6.30;4.97;;;17.00;47.40;;;;;;5048916;28;45016;-86
2022/01/11 00:38:49;;;;;;;5.80;4.72;;;17.20;50.90;;;;;;5067294;28;45490;-87
2022/01/11 00:41:42;;;;;;;6.53;4.68;;;17.00;50.30;;;;;;5050855;28;44935;-86
2022/01/11 00:44:10;;;;;;;6.75;5.10;;;17.20;49.70;;;;;;5068670;28;45430;-87
2022/01/11 00:49:33;;;;;;;5.93;4.68;;;17.20;54.30;;;;;;5067385;28;45566;-87
2022/01/11 00:52:04;;;;;;;5.70;4.63;;;17.50;56.00;;;;;;5069738;28;44981;-87
2022/01/11 00:57:24;;;;;;;7.18;5.43;;;17.20;47.70;;;;;;5049135;28;45233;-87
2022/01/11 00:59:56;;;;;;;6.82;4.88;;;15.50;47.40;;;;;;5049875;28;44637;-88
2022/01/11 01:02:42;;;;;;;8.35;5.40;;;17.20;49.30;;;;;;5056996;28;44970;-88
2022/01/11 01:08:15;;;;;;;7.00;5.38;;;15.30;46.40;;;;;;5051135;28;45416;-88
2022/01/11 01:10:50;;;;;;;6.88;5.00;;;17.20;48.90;;;;;;5056523;28;44832;-89
2022/01/11 01:16:29;;;;;;;6.32;4.78;;;18.80;50.30;;;;;;5057826;28;45360;-87
2022/01/11 01:19:43;;;;;;;7.72;5.40;;;18.40;51.40;;;;;;5072750;28;45164;-88
2022/01/11 01:26:18;;;;;;;7.97;6.18;;;16.90;47.60;;;;;;5163579;27;45288;-88
2022/01/11 01:28:50;;;;;;;6.68;5.03;;;17.00;48.60;;;;;;5162244;27;45153;-87
2022/01/11 01:31:18;;;;;;;6.22;4.75;;;17.00;49.60;;;;;;5163143;27;45164;-87
2022/01/11 01:33:47;;;;;;;6.35;4.80;;;17.20;50.50;;;;;;5162383;27;45518;-88
2022/01/11 01:36:16;;;;;;;7.35;4.88;;;17.00;49.60;;;;;;5162308;27;46990;-87
2022/01/11 01:38:44;;;;;;;6.68;5.22;;;17.00;49.70;;;;;;5160199;27;45188;-87
2022/01/11 01:41:16;;;;;;;7.85;5.65;;;17.00;47.30;;;;;;5149252;27;45174;-87
2022/01/11 01:43:44;;;;;;;7.72;5.45;;;16.90;46.60;;;;;;5155395;27;45118;-87
2022/01/11 01:49:39;;;;;;;7.22;5.15;;;17.00;46.80;;;;;;5119984;27;45171;-87
2022/01/11 01:52:10;;;;;;;7.20;5.20;;;16.90;46.50;;;;;;5081103;28;45389;-87
2022/01/11 01:54:48;;;;;;;7.93;5.18;;;16.90;47.30;;;;;;5072177;28;45449;-87
2022/01/11 01:57:19;;;;;;;8.05;5.25;;;16.90;46.60;;;;;;5080202;28;45379;-86
2022/01/11 01:59:51;;;;;;;6.85;5.00;;;16.90;46.70;;;;;;5091408;28;46484;-87
2022/01/11 02:02:51;;;;;;;9.40;6.55;;;16.90;46.40;;;;;;5085682;28;44800;-87
2022/01/11 02:05:25;;;;;;;7.07;5.50;;;16.90;47.80;;;;;;5091993;28;45155;-87
2022/01/11 02:07:55;;;;;;;8.52;5.95;;;16.90;46.20;;;;;;5090899;28;44859;-87
2022/01/11 02:10:29;;;;;;;7.90;5.25;;;17.00;47.90;;;;;;5077316;27;45709;-87
2022/01/11 02:13:22;;;;;;;7.88;5.60;;;17.00;48.60;;;;;;5077718;28;44761;-87
2022/01/11 02:15:58;;;;;;;7.63;5.57;;;17.00;48.30;;;;;;5066354;28;45038;-86
2022/01/11 02:18:31;;;;;;;8.77;6.05;;;17.10;49.70;;;;;;5068491;28;44798;-88
2022/01/11 02:21:04;;;;;;;9.40;6.72;;;19.10;50.60;;;;;;5074284;28;45815;-88
2022/01/11 02:23:39;;;;;;;8.10;5.85;;;18.20;49.80;;;;;;5081409;28;44720;-87
2022/01/11 02:26:12;;;;;;;8.82;6.00;;;17.90;52.80;;;;;;5063573;27;45314;-88
2022/01/11 02:28:56;;;;;;;7.47;5.65;;;16.80;46.10;;;;;;5080928;28;44930;-88
2022/01/11 02:31:29;;;;;;;9.63;6.43;;;17.20;51.40;;;;;;5084822;28;45581;-88
2022/01/11 02:37:13;;;;;;;9.95;6.70;;;15.80;47.70;;;;;;5069886;28;44779;-88
2022/01/11 02:42:27;;;;;;;10.77;7.13;;;18.50;50.00;;;;;;5084601;28;46853;-87
2022/01/11 02:45:02;;;;;;;9.68;6.93;;;16.80;47.90;;;;;;5064192;28;44815;-87
2022/01/11 02:47:47;;;;;;;12.60;8.35;;;16.70;46.90;;;;;;5074556;28;44845;-87
2022/01/11 02:51:08;;;;;;;8.20;6.13;;;17.10;47.50;;;;;;5084848;28;44977;-88
2022/01/11 02:54:15;;;;;;;9.70;6.85;;;17.20;48.40;;;;;;5066378;28;45458;-87
2022/01/11 03:02:11;;;;;;;9.77;7.05;;;16.90;49.00;;;;;;5054935;28;45119;-86
2022/01/11 03:04:44;;;;;;;10.15;6.70;;;16.90;50.30;;;;;;5066167;28;45431;-86
2022/01/11 03:07:16;;;;;;;9.75;6.82;;;16.90;48.40;;;;;;5065751;28;44847;-86
2022/01/11 03:10:17;;;;;;;8.90;6.68;;;17.00;48.60;;;;;;5051800;28;45239;-86
2022/01/11 03:12:45;;;;;;;10.60;7.50;;;16.90;46.90;;;;;;5043368;28;45208;-85
2022/01/11 03:15:13;;;;;;;10.30;7.68;;;16.90;46.40;;;;;;5038332;28;47424;-85
2022/01/11 03:20:37;;;;;;;9.77;6.90;;;16.90;46.30;;;;;;5042351;28;45226;-86
2022/01/11 03:23:07;;;;;;;9.25;6.88;;;17.80;47.60;;;;;;5046807;28;45537;-85
2022/01/11 03:25:39;;;;;;;8.18;6.50;;;16.90;48.80;;;;;;5067320;28;46817;-85
2022/01/11 03:28:08;;;;;;;10.82;7.40;;;16.90;46.60;;;;;;5059772;28;45402;-86
2022/01/11 03:30:37;;;;;;;9.02;6.85;;;17.10;46.50;;;;;;5064872;28;45290;-85
2022/01/11 03:33:06;;;;;;;11.00;7.90;;;16.90;46.30;;;;;;5071458;28;45157;-85
2022/01/11 03:35:34;;;;;;;11.13;7.90;;;16.90;46.30;;;;;;5087756;27;45961;-86
2022/01/11 03:38:03;;;;;;;11.18;7.43;;;16.80;49.20;;;;;;5060157;28;45384;-85
2022/01/11 03:40:36;;;;;;;9.55;6.70;;;16.90;46.40;;;;;;5072934;28;45200;-86
2022/01/11 03:43:10;;;;;;;8.18;6.30;;;16.90;47.40;;;;;;5070794;28;45060;-85
2022/01/11 03:45:42;;;;;;;11.07;7.88;;;16.90;48.20;;;;;;5069118;27;47779;-86
2022/01/11 03:48:21;;;;;;;9.98;7.30;;;17.10;47.80;;;;;;5044839;28;45323;-85
2022/01/11 03:50:52;;;;;;;10.35;7.40;;;17.00;48.10;;;;;;5059566;28;45369;-87
2022/01/11 03:53:26;;;;;;;9.18;6.80;;;16.90;49.00;;;;;;5066717;28;45327;-86
2022/01/11 03:58:46;;;;;;;9.68;7.13;;;16.90;47.20;;;;;;5052905;28;45273;-86
2022/01/11 04:01:17;;;;;;;8.98;6.68;;;16.90;46.40;;;;;;5060789;28;45370;-86
2022/01/11 04:03:50;;;;;;;9.50;6.88;;;16.90;45.60;;;;;;5047791;28;45480;-86
2022/01/11 04:06:28;;;;;;;9.80;6.90;;;16.90;45.70;;;;;;5042619;28;48016;-87
2022/01/11 04:08:57;;;;;;;10.43;7.35;;;17.30;49.90;;;;;;5064764;28;45260;-87
2022/01/11 04:11:24;;;;;;;10.45;7.28;;;16.80;45.60;;;;;;5065866;28;45277;-88
2022/01/11 04:14:17;;;;;;;11.63;7.53;;;16.90;45.30;;;;;;5061427;28;45236;-86
2022/01/11 04:17:02;;;;;;;10.02;7.10;;;16.90;45.20;;;;;;5074045;28;47275;-87
2022/01/11 04:19:52;;;;;;;9.80;7.10;;;16.90;45.10;;;;;;5069365;28;44726;-87
2022/01/11 04:22:25;;;;;;;10.20;6.78;;;17.00;46.10;;;;;;5069403;28;45129;-87
2022/01/11 04:25:01;;;;;;;9.20;6.65;;;16.80;45.60;;;;;;5060565;28;45239;-87
2022/01/11 04:27:32;;;;;;;9.43;7.15;;;15.70;46.40;;;;;;5068221;28;45493;-87
2022/01/11 04:30:05;;;;;;;9.70;6.70;;;17.20;46.50;;;;;;5089588;28;44869;-87
2022/01/11 04:32:33;;;;;;;9.15;6.90;;;16.90;46.80;;;;;;5077052;27;44938;-87
2022/01/11 04:35:05;;;;;;;8.38;6.30;;;17.00;46.70;;;;;;5077424;28;45270;-87
2022/01/11 04:37:39;;;;;;;9.05;6.57;;;16.90;50.50;;;;;;5055145;28;45684;-87
2022/01/11 04:40:10;;;;;;;8.27;6.55;;;17.00;47.30;;;;;;5068049;28;45216;-86
2022/01/11 04:42:42;;;;;;;9.30;6.93;;;17.30;46.00;;;;;;5067141;28;45145;-88
2022/01/11 04:45:14;;;;;;;9.35;6.72;;;16.90;45.60;;;;;;5059391;28;45503;-86
2022/01/11 04:47:44;;;;;;;8.55;6.43;;;16.90;45.50;;;;;;5057611;28;45417;-86
2022/01/11 04:50:15;;;;;;;9.20;6.85;;;16.90;48.30;;;;;;5057157;28;44802;-86
2022/01/11 04:52:44;;;;;;;8.43;6.20;;;16.90;45.60;;;;;;5076276;28;45177;-86
2022/01/11 04:55:15;;;;;;;9.25;6.75;;;17.10;45.90;;;;;;5069236;27;45232;-86
2022/01/11 04:57:47;;;;;;;9.27;6.47;;;17.00;49.60;;;;;;5082939;28;46598;-86
2022/01/11 05:00:19;;;;;;;8.68;6.15;;;16.90;45.60;;;;;;5079906;28;45159;-86
2022/01/11 05:02:47;;;;;;;7.38;5.80;;;16.90;45.10;;;;;;5064515;28;45274;-86
2022/01/11 05:05:20;;;;;;;8.32;6.22;;;17.20;51.10;;;;;;5060933;28;45486;-86
2022/01/11 05:07:48;;;;;;;7.63;5.55;;;17.10;45.10;;;;;;5067558;28;46343;-85
2022/01/11 05:10:28;;;;;;;8.00;5.57;;;16.80;46.70;;;;;;5072435;28;45151;-87
2022/01/11 05:12:58;;;;;;;7.60;5.35;;;16.80;45.50;;;;;;5056626;28;45106;-86
2022/01/11 05:26:01;;;;;;;6.97;5.35;;;16.90;46.20;;;;;;1016623;26;45998;-87
2022/01/11 05:28:36;;;;;;;8.07;6.13;;;17.10;47.40;;;;;;4992874;28;46566;-85
2022/01/11 05:31:06;;;;;;;6.97;5.15;;;17.30;45.10;;;;;;4981593;28;45083;-86
2022/01/11 05:33:51;;;;;;;5.90;4.45;;;16.80;45.00;;;;;;5003139;28;45132;-87
2022/01/11 05:36:20;;;;;;;6.95;5.10;;;16.80;50.80;;;;;;4968021;28;45340;-85
2022/01/11 05:39:01;;;;;;;7.00;5.40;;;17.40;52.20;;;;;;5001457;28;45783;-88
2022/01/11 05:42:09;;;;;;;7.70;5.90;;;16.80;48.10;;;;;;5004232;28;44844;-87
2022/01/11 05:44:39;;;;;;;7.00;5.60;;;16.80;47.60;;;;;;5003287;28;44751;-86
2022/01/11 05:47:09;;;;;;;6.88;5.28;;;16.80;46.80;;;;;;5000555;28;45536;-86
2022/01/11 05:49:37;;;;;;;8.32;5.30;;;16.80;46.90;;;;;;4999128;28;45589;-86
2022/01/11 05:52:06;;;;;;;7.53;5.70;;;16.80;46.40;;;;;;4998687;28;45080;-86
2022/01/11 05:54:36;;;;;;;7.00;5.30;;;16.80;46.20;;;;;;4982847;28;45115;-86
2022/01/11 05:59:50;;;;;;;6.75;5.35;;;16.80;47.80;;;;;;4999482;28;45700;-86
2022/01/11 06:02:21;;;;;;;7.93;5.70;;;16.70;48.40;;;;;;5002061;28;45402;-85
2022/01/11 06:04:50;;;;;;;8.25;5.90;;;17.10;45.90;;;;;;5003440;28;45218;-86
2022/01/11 06:07:28;;;;;;;7.85;5.65;;;16.90;46.70;;;;;;4998261;28;45290;-85
2022/01/11 06:09:56;;;;;;;8.77;6.38;;;16.80;47.00;;;;;;4996239;28;47513;-85
2022/01/11 06:12:26;;;;;;;7.40;5.45;;;16.80;46.00;;;;;;4995764;28;45315;-85
2022/01/11 06:14:53;;;;;;;7.82;6.03;;;16.80;45.10;;;;;;4997660;28;45210;-85
2022/01/11 06:17:21;;;;;;;8.85;6.22;;;16.70;44.80;;;;;;4996941;28;45402;-84
2022/01/11 06:19:50;;;;;;;8.13;6.20;;;16.70;44.80;;;;;;4996048;28;47443;-85
2022/01/11 06:22:17;;;;;;;7.72;6.05;;;16.90;44.90;;;;;;4996374;28;45522;-85
2022/01/11 06:24:54;;;;;;;6.75;5.32;;;16.70;44.90;;;;;;4997019;28;45498;-87
2022/01/11 06:27:26;;;;;;;7.57;5.55;;;16.70;45.40;;;;;;4998609;28;45199;-87
2022/01/11 06:30:07;;;;;;;9.05;6.22;;;16.70;45.90;;;;;;4998551;28;46595;-87
2022/01/11 06:32:38;;;;;;;8.50;5.70;;;16.70;46.40;;;;;;4995614;28;45295;-85
2022/01/11 06:38:14;;;;;;;7.90;5.50;;;16.90;47.10;;;;;;5005204;28;44826;-88
2022/01/11 06:40:48;;;;;;;7.03;5.20;;;18.60;49.70;;;;;;5005560;28;47374;-88
2022/01/11 06:43:16;;;;;;;7.63;5.88;;;16.80;47.00;;;;;;4982851;28;45238;-87
2022/01/11 06:48:53;;;;;;;7.13;5.18;;;16.70;48.40;;;;;;5014108;28;44919;-89
2022/01/11 06:54:18;;;;;;;8.45;5.28;;;16.90;49.70;;;;;;5006364;28;45161;-89
2022/01/11 06:56:56;;;;;;;7.22;5.18;;;16.90;52.40;;;;;;5010140;28;44739;-87
2022/01/11 06:59:25;;;;;;;8.82;6.15;;;16.90;47.40;;;;;;5007863;28;44780;-87
2022/01/11 07:01:58;;;;;;;6.90;5.32;;;16.90;47.40;;;;;;5007563;28;46367;-86
2022/01/11 07:04:37;;;;;;;8.60;6.05;;;16.90;46.50;;;;;;5005642;28;45283;-87
2022/01/11 07:07:06;;;;;;;8.63;5.88;;;16.90;50.90;;;;;;5026310;28;45535;-88
2022/01/11 07:09:41;;;;;;;8.32;5.97;;;16.90;47.10;;;;;;5009483;28;44908;-87
2022/01/11 07:12:14;;;;;;;8.93;5.80;;;16.80;45.30;;;;;;5003843;28;47944;-86
2022/01/11 07:14:43;;;;;;;8.90;6.38;;;16.70;45.30;;;;;;5004729;28;44808;-86
2022/01/11 07:17:21;;;;;;;9.18;6.40;;;16.80;46.40;;;;;;5003314;28;45185;-86
2022/01/11 07:20:09;;;;;;;8.57;6.28;;;16.80;45.60;;;;;;4985983;28;45108;-85
2022/01/11 07:22:37;;;;;;;7.93;5.57;;;17.10;47.80;;;;;;5001102;28;46621;-86
2022/01/11 07:25:06;;;;;;;9.57;6.68;;;17.10;50.50;;;;;;5000574;28;45107;-87
2022/01/11 07:27:35;;;;;;;8.43;5.72;;;16.90;45.70;;;;;;4998582;28;45317;-86
2022/01/11 07:30:24;;;;;;;8.25;5.50;;;16.80;45.30;;;;;;4984133;28;45504;-88
2022/01/11 07:33:12;;;;;;;8.98;5.78;;;16.00;46.10;;;;;;5011116;28;45323;-87
2022/01/11 07:38:38;;;;;;;7.18;5.57;;;16.80;46.10;;;;;;4990992;28;44745;-88
2022/01/11 07:41:23;;;;;;;7.40;5.40;;;16.80;46.30;;;;;;5004385;28;45000;-87
2022/01/11 07:44:07;;;;;;;8.15;5.28;;;17.00;50.00;;;;;;4988338;28;46293;-87
2022/01/11 07:46:36;;;;;;;9.25;6.30;;;17.20;45.10;;;;;;4984085;28;45301;-87
2022/01/11 07:49:11;;;;;;;7.63;5.50;;;16.70;44.40;;;;;;4988125;28;45236;-87
2022/01/11 07:51:41;;;;;;;9.45;6.32;;;16.90;45.10;;;;;;4985476;28;45525;-86
2022/01/11 07:54:35;;;;;;;8.95;6.00;;;15.30;48.00;;;;;;4997766;28;45291;-86
2022/01/11 07:57:12;;;;;;;7.78;5.65;;;16.70;44.40;;;;;;5004135;28;44900;-87
2022/01/11 07:59:45;;;;;;;8.38;6.10;;;16.70;44.30;;;;;;5005405;28;44991;-87
2022/01/11 08:02:15;;;;;;;8.52;6.05;;;16.30;45.60;;;;;;5003646;28;45226;-86
2022/01/11 08:04:53;;;;;;;7.38;5.25;;;17.00;44.90;;;;;;4999218;28;46718;-86
2022/01/11 08:07:21;;;;;;;8.07;5.63;;;16.70;45.30;;;;;;4979091;28;45243;-84
2022/01/11 08:12:35;;;;;;;8.63;6.20;;;16.70;44.70;;;;;;4997391;28;45325;-84
2022/01/11 08:15:10;;;;;;;7.75;5.53;;;16.80;45.00;;;;;;4998815;28;46532;-85
2022/01/11 08:17:37;;;;;;;9.40;5.90;;;16.70;46.30;;;;;;4998860;28;45421;-84
2022/01/11 08:20:10;;;;;;;8.90;5.78;;;16.90;46.80;;;;;;4981034;28;45335;-84
2022/01/11 08:22:38;;;;;;;7.63;5.05;;;16.80;44.60;;;;;;4998723;28;45143;-84
2022/01/11 08:25:20;;;;;;;7.95;5.55;;;16.80;44.90;;;;;;4997642;28;45254;-84
2022/01/11 08:27:48;;;;;;;7.35;5.47;;;16.80;44.40;;;;;;5000767;28;45128;-84
2022/01/11 08:30:18;;;;;;;7.13;5.57;;;16.80;44.80;;;;;;4997127;28;45306;-85
2022/01/11 08:36:09;;;;;;;8.25;5.60;;;16.80;44.00;;;;;;4999430;28;46711;-85
2022/01/11 08:39:05;;;;;;;8.60;5.72;;;17.00;45.10;;;;;;4992865;28;45337;-87
2022/01/11 08:41:35;;;;;;;7.43;5.30;;;16.90;44.10;;;;;;5003991;28;45249;-86
2022/01/11 08:44:06;;;;;;;8.95;6.18;;;15.80;46.60;;;;;;5005446;28;45488;-87
2022/01/11 08:46:37;;;;;;;8.68;5.82;;;16.70;47.70;;;;;;4995236;28;45791;-87
2022/01/11 08:49:10;;;;;;;8.45;6.13;;;16.90;48.50;;;;;;5010056;28;45072;-88
2022/01/11 08:51:54;;;;;;;7.57;5.68;;;16.70;44.00;;;;;;5006756;28;45154;-87
2022/01/11 08:54:33;;;;;;;7.93;5.53;;;16.70;43.90;;;;;;5006746;28;45294;-87
2022/01/11 08:59:45;;;;;;;8.35;5.63;;;16.80;44.00;;;;;;5005476;28;45076;-86
2022/01/11 09:02:20;;;;;;;8.65;5.95;;;18.10;51.20;;;;;;5005544;28;45224;-86
2022/01/11 09:04:52;;;;;;;7.95;5.90;;;16.80;44.30;;;;;;5006081;28;44879;-87
2022/01/11 09:07:23;;;;;;;8.15;5.50;;;16.80;44.60;;;;;;5005112;28;47354;-85
2022/01/11 09:10:07;;;;;;;7.95;5.40;;;17.00;46.90;;;;;;4994418;28;45302;-86
2022/01/11 09:12:39;;;;;;;9.27;6.05;;;16.00;45.30;;;;;;4988751;28;45304;-86
2022/01/11 09:15:13;;;;;;;7.45;5.35;;;17.10;44.80;;;;;;5003951;28;45168;-86
2022/01/11 09:17:46;;;;;;;5.07;3.78;;;16.80;44.30;;;;;;4988052;28;45170;-88
2022/01/11 09:20:17;;;;;;;7.18;5.32;;;16.80;50.10;;;;;;5007063;28;44791;-87
2022/01/11 09:23:04;;;;;;;8.73;5.57;;;16.80;50.20;;;;;;5008139;28;45406;-87
2022/01/11 09:25:58;;;;;;;8.27;5.90;;;16.90;48.80;;;;;;4996724;28;45253;-87
2022/01/11 09:28:38;;;;;;;8.27;5.60;;;16.90;46.10;;;;;;5017529;28;45702;-87
2022/01/11 09:31:10;;;;;;;7.28;5.45;;;16.70;45.70;;;;;;5014531;28;45171;-87
2022/01/11 09:33:42;;;;;;;8.32;6.00;;;16.80;48.80;;;;;;5004569;28;45164;-86
2022/01/11 09:36:10;;;;;;;8.02;5.63;;;16.80;47.40;;;;;;5004585;28;44748;-87
2022/01/11 09:38:41;;;;;;;7.32;5.50;;;15.50;44.80;;;;;;5002955;28;46722;-87
2022/01/11 09:41:13;;;;;;;8.60;5.88;;;16.80;44.70;;;;;;5008215;28;45451;-86
2022/01/11 09:43:47;;;;;;;8.13;6.15;;;16.90;49.70;;;;;;5004121;28;44746;-88
2022/01/11 09:46:18;;;;;;;9.25;6.10;;;18.10;46.50;;;;;;5005877;28;44760;-87
2022/01/11 09:48:53;;;;;;;7.78;5.70;;;16.90;46.90;;;;;;5005330;28;48265;-88
2022/01/11 09:51:27;;;;;;;8.27;5.60;;;16.80;44.70;;;;;;4987187;28;45151;-87
2022/01/11 09:53:56;;;;;;;7.70;5.70;;;16.80;46.90;;;;;;5004328;28;44807;-86
2022/01/11 09:56:26;;;;;;;8.35;5.85;;;16.90;44.30;;;;;;5002585;28;45321;-86
2022/01/11 09:58:53;;;;;;;8.52;6.03;;;17.00;47.00;;;;;;5001781;28;45444;-87
2022/01/11 10:01:21;;;;;;;7.35;5.55;;;18.60;48.20;;;;;;5001329;28;45388;-85
2022/01/11 10:04:03;;;;;;;9.18;5.78;;;17.00;46.90;;;;;;5007392;28;45314;-86
2022/01/11 10:06:32;;;;;;;9.30;6.47;;;16.70;44.40;;;;;;5001194;28;45427;-86
2022/01/11 10:09:10;;;;;;;7.85;5.72;;;16.80;44.60;;;;;;5000899;28;46266;-86
2022/01/11 10:11:44;;;;;;;8.82;6.28;;;16.90;44.10;;;;;;5003723;28;44767;-86
2022/01/11 10:14:21;;;;;;;9.40;6.45;;;16.80;44.00;;;;;;5004640;28;44793;-86
2022/01/11 10:16:53;;;;;;;10.15;6.60;;;16.80;44.00;;;;;;5004945;28;45116;-86
2022/01/11 10:19:26;;;;;;;9.98;7.00;;;16.80;44.70;;;;;;5004384;28;46952;-86
2022/01/11 10:21:59;;;;;;;11.10;7.00;;;16.80;44.00;;;;;;5004704;28;45317;-86
2022/01/11 10:24:42;;;;;;;10.07;6.85;;;16.80;44.40;;;;;;5005381;28;45131;-87
2022/01/11 10:27:15;;;;;;;11.40;7.60;;;17.10;45.30;;;;;;4987836;28;45125;-87
2022/01/11 10:29:44;;;;;;;9.77;6.80;;;16.80;44.10;;;;;;5005864;28;47380;-86
2022/01/11 10:32:21;;;;;;;10.20;6.63;;;16.80;45.50;;;;;;5006227;28;45167;-86
2022/01/11 10:34:51;;;;;;;10.18;6.82;;;16.80;44.30;;;;;;5007150;28;45281;-87
2022/01/11 10:37:47;;;;;;;9.38;6.53;;;16.90;44.70;;;;;;5007511;28;44976;-86
2022/01/11 10:40:34;;;;;;;9.00;6.32;;;17.30;45.40;;;;;;5008018;28;45167;-86
2022/01/11 10:43:17;;;;;;;9.23;6.28;;;16.80;44.70;;;;;;5008420;28;45277;-87
2022/01/11 10:46:07;;;;;;;10.65;6.95;;;18.40;50.40;;;;;;5008689;28;45064;-87
2022/01/11 10:48:44;;;;;;;9.63;6.82;;;16.80;44.80;;;;;;5009774;28;45250;-87
2022/01/11 10:51:17;;;;;;;11.23;7.22;;;18.80;48.20;;;;;;4991850;28;45166;-87
2022/01/11 10:53:50;;;;;;;11.18;6.85;;;16.80;44.10;;;;;;5010423;28;44693;-87
2022/01/11 10:56:24;;;;;;;10.63;6.97;;;16.80;44.10;;;;;;4993227;28;45257;-86
2022/01/11 10:59:20;;;;;;;12.02;7.90;;;16.80;44.60;;;;;;5002949;28;44905;-87
2022/01/11 11:01:56;;;;;;;10.88;7.05;;;16.80;44.20;;;;;;5009009;28;48642;-86
2022/01/11 11:04:38;;;;;;;10.98;7.28;;;16.70;44.60;;;;;;4991869;28;45357;-86
2022/01/11 11:10:08;;;;;;;10.05;6.80;;;16.70;44.10;;;;;;5007321;28;44888;-87
2022/01/11 11:12:44;;;;;;;11.88;7.93;;;15.50;42.90;;;;;;4991790;28;46416;-86
2022/01/11 11:15:39;;;;;;;12.93;6.97;;;16.80;44.10;;;;;;5009095;28;45102;-87
2022/01/11 11:18:28;;;;;;;11.20;7.43;;;16.90;45.00;;;;;;5007854;28;44708;-86
2022/01/11 11:20:58;;;;;;;11.40;6.88;;;16.80;44.20;;;;;;5007936;28;45099;-86
2022/01/11 11:23:48;;;;;;;11.02;7.18;;;16.80;44.40;;;;;;5004313;28;45444;-86
2022/01/11 11:26:22;;;;;;;11.73;7.55;;;16.80;44.20;;;;;;4990374;28;45218;-86
2022/01/11 11:29:01;;;;;;;12.82;7.85;;;16.90;44.60;;;;;;5008980;28;44799;-86
2022/01/11 11:31:50;;;;;;;13.45;8.25;;;17.10;47.90;;;;;;5010608;28;46413;-87
2022/01/11 11:34:23;;;;;;;11.70;7.70;;;19.60;48.00;;;;;;5011004;28;45511;-87
2022/01/11 11:37:03;;;;;;;13.05;7.97;;;16.80;44.10;;;;;;5010804;28;46189;-88
2022/01/11 11:39:41;;;;;;;13.60;8.13;;;16.80;44.20;;;;;;5010701;28;45314;-88
2022/01/11 11:42:28;;;;;;;12.93;7.85;;;16.80;49.30;;;;;;5011325;28;44993;-88
2022/01/11 11:45:01;;;;;;;12.57;8.10;;;16.80;44.20;;;;;;4982837;28;46990;-87
2022/01/11 11:47:37;;;;;;;13.50;8.20;;;17.00;44.80;;;;;;4970598;28;44824;-86
2022/01/11 11:53:23;;;;;;;13.80;8.02;;;16.70;45.00;;;;;;5006365;28;45235;-87
2022/01/11 11:56:10;;;;;;;15.32;8.75;;;16.80;44.40;;;;;;4991690;28;45621;-87
2022/01/11 11:58:47;;;;;;;15.05;8.75;;;16.80;44.70;;;;;;5007416;28;44759;-86
2022/01/11 12:01:46;;;;;;;13.55;8.40;;;16.80;44.70;;;;;;5006616;28;45080;-86
2022/01/11 12:04:44;;;;;;;13.40;8.43;;;16.80;44.10;;;;;;5007385;28;45197;-87
2022/01/11 12:07:29;;;;;;;14.75;8.18;;;16.80;48.50;;;;;;5008221;28;47637;-87
2022/01/11 12:10:03;;;;;;;14.63;8.55;;;16.70;44.90;;;;;;5008531;28;45248;-85
2022/01/11 12:12:49;;;;;;;13.13;7.95;;;16.90;44.70;;;;;;5008644;28;45261;-87
2022/01/11 12:16:08;;;;;;;15.07;8.75;;;16.90;44.30;;;;;;5008187;28;45322;-86
2022/01/11 12:21:32;;;;;;;11.50;6.78;;;16.80;44.40;;;;;;5002852;28;45296;-86
2022/01/11 12:27:06;;;;;;;15.07;8.68;;;16.90;50.00;;;;;;5006215;28;45053;-86
2022/01/11 12:29:37;;;;;;;15.10;8.95;;;16.80;47.10;;;;;;5007497;28;46870;-85
2022/01/11 12:35:00;;;;;;;16.70;8.95;;;17.10;46.70;;;;;;4996222;28;45302;-87
2022/01/11 12:37:38;;;;;;;18.77;10.75;;;17.00;45.40;;;;;;5003954;28;44951;-87
2022/01/11 12:43:43;;;;;;;17.70;11.23;;;17.10;46.20;;;;;;5009848;28;44967;-88
2022/01/11 12:46:13;;;;;;;17.80;10.32;;;16.90;45.00;;;;;;4989880;28;45062;-88
2022/01/11 12:49:06;;;;;;;18.52;10.98;;;16.90;45.30;;;;;;5002223;28;46416;-87
2022/01/11 12:51:49;;;;;;;20.38;12.40;;;16.90;44.70;;;;;;5006867;28;45232;-87
2022/01/11 13:00:23;;;;;;;19.77;11.45;;;17.10;48.10;;;;;;5010019;28;44927;-87
2022/01/11 13:03:03;;;;;;;18.35;10.57;;;17.00;44.40;;;;;;5009372;28;46831;-88
2022/01/11 13:05:51;;;;;;;18.13;10.52;;;17.10;45.50;;;;;;5007849;28;45326;-87
2022/01/11 13:08:44;;;;;;;16.50;10.25;;;17.20;44.80;;;;;;5009279;28;45266;-87
2022/01/11 13:11:59;;;;;;;19.73;11.82;;;16.90;45.40;;;;;;4999636;28;44856;-87
2022/01/11 13:17:26;;;;;;;18.25;11.10;;;16.70;44.70;;;;;;4998080;28;45154;-85
2022/01/11 13:23:07;;;;;;;21.15;11.93;;;16.90;45.10;;;;;;5009003;28;44948;-86
2022/01/11 13:25:53;;;;;;;19.77;11.52;;;16.90;45.70;;;;;;5005632;28;46314;-88
2022/01/11 13:28:37;;;;;;;19.98;11.20;;;17.20;48.20;;;;;;5002511;28;45119;-87
2022/01/11 13:31:12;;;;;;;18.80;10.45;;;17.10;46.10;;;;;;5008920;28;44825;-88
2022/01/11 13:33:47;;;;;;;17.27;10.70;;;17.00;46.60;;;;;;5007573;28;45297;-87
2022/01/11 13:39:24;;;;;;;17.88;10.68;;;17.10;45.40;;;;;;5007904;28;44785;-87
2022/01/11 13:42:01;;;;;;;19.90;11.52;;;17.20;45.80;;;;;;5008493;28;45204;-88
2022/01/11 13:44:37;;;;;;;18.60;10.75;;;16.90;45.80;;;;;;5001761;28;45294;-87
2022/01/11 13:47:09;;;;;;;19.05;11.65;;;17.30;45.90;;;;;;4999737;28;47376;-87
2022/01/11 13:49:39;;;;;;;20.83;10.82;;;16.90;45.80;;;;;;5003985;28;45277;-87
2022/01/11 13:52:12;;;;;;;19.77;11.10;;;16.90;46.10;;;;;;5003216;28;45162;-84
2022/01/11 13:54:44;;;;;;;21.20;11.93;;;16.90;45.60;;;;;;4998306;28;45226;-88
2022/01/11 13:57:27;;;;;;;17.98;11.70;;;17.60;47.30;;;;;;4991816;28;47348;-88
2022/01/11 14:00:10;;;;;;;20.02;10.88;;;16.80;45.90;;;;;;5008552;28;44805;-87
2022/01/11 14:02:38;;;;;;;18.10;10.80;;;16.80;45.50;;;;;;5001262;28;45285;-86
2022/01/11 14:05:11;;;;;;;20.58;11.45;;;16.90;45.80;;;;;;5004731;28;45235;-86
2022/01/11 14:07:41;;;;;;;20.30;11.18;;;16.90;46.00;;;;;;5002555;28;47114;-87
2022/01/11 14:10:15;;;;;;;20.23;10.32;;;16.80;45.60;;;;;;4985471;28;44793;-88
2022/01/11 14:12:49;;;;;;;22.42;12.43;;;16.80;46.70;;;;;;4989000;28;45124;-88
2022/01/11 14:15:23;;;;;;;21.17;12.43;;;16.90;45.90;;;;;;5005126;28;45252;-88
2022/01/11 14:17:58;;;;;;;24.98;12.45;;;16.80;46.50;;;;;;5003228;28;46536;-87
2022/01/11 14:20:28;;;;;;;21.05;11.82;;;16.90;46.20;;;;;;5011454;28;44775;-87
2022/01/11 14:23:06;;;;;;;19.90;11.32;;;16.90;46.00;;;;;;5010956;28;45333;-88
2022/01/11 14:25:44;;;;;;;22.23;12.20;;;16.90;46.00;;;;;;5003190;28;45165;-87
2022/01/11 14:28:16;;;;;;;21.92;12.32;;;16.90;46.00;;;;;;5001230;28;48204;-88
2022/01/11 14:30:50;;;;;;;19.23;11.40;;;16.90;46.00;;;;;;4998944;28;45369;-88
2022/01/11 14:33:30;;;;;;;20.77;11.88;;;16.90;46.40;;;;;;5003257;28;45223;-88
2022/01/11 14:35:59;;;;;;;19.73;11.43;;;16.90;46.00;;;;;;5005211;28;45472;-87
2022/01/11 14:38:37;;;;;;;20.05;11.85;;;16.90;46.40;;;;;;5003023;28;47486;-87
2022/01/11 14:44:02;;;;;;;20.90;12.88;;;16.80;46.30;;;;;;5004253;28;44757;-87
2022/01/11 14:46:33;;;;;;;19.83;11.82;;;16.80;46.80;;;;;;5004577;28;45289;-87
2022/01/11 14:49:11;;;;;;;20.92;12.23;;;16.80;46.50;;;;;;5006057;28;45874;-88
2022/01/11 14:51:43;;;;;;;20.17;11.88;;;16.80;46.40;;;;;;4987596;28;45077;-88
2022/01/11 14:54:19;;;;;;;22.23;12.10;;;16.90;46.40;;;;;;4988650;28;45200;-87
2022/01/11 14:56:52;;;;;;;18.35;11.30;;;16.80;47.80;;;;;;5006998;28;45189;-89
2022/01/11 14:59:24;;;;;;;19.75;11.52;;;17.00;46.80;;;;;;5011557;28;47200;-89
2022/01/11 15:02:09;;;;;;;19.02;11.35;;;17.00;47.00;;;;;;5008530;28;44826;-87
2022/01/11 15:04:46;;;;;;;19.63;11.25;;;17.00;46.60;;;;;;4987874;28;44996;-87
2022/01/11 15:07:18;;;;;;;18.75;11.30;;;16.90;47.00;;;;;;4984876;28;45504;-87
2022/01/11 15:09:50;;;;;;;19.50;11.13;;;16.90;47.20;;;;;;5004096;28;47215;-87
2022/01/11 15:12:22;;;;;;;19.48;11.27;;;16.80;46.60;;;;;;5012368;28;45222;-87
2022/01/11 15:14:54;;;;;;;20.35;10.95;;;16.90;46.70;;;;;;5003883;28;45172;-88
2022/01/11 15:20:30;;;;;;;19.92;11.35;;;16.90;46.40;;;;;;4997374;28;45654;-88
2022/01/11 15:23:29;;;;;;;18.38;10.60;;;16.90;46.40;;;;;;4989087;28;44796;-88
2022/01/11 15:26:17;;;;;;;22.90;12.13;;;16.80;48.70;;;;;;5007873;28;44818;-88
2022/01/11 15:28:46;;;;;;;18.17;10.43;;;17.30;47.30;;;;;;5011117;28;45504;-88
2022/01/11 15:34:12;;;;;;;18.40;11.27;;;16.90;49.10;;;;;;4996239;28;45348;-88
2022/01/11 15:36:48;;;;;;;17.60;10.10;;;16.90;46.60;;;;;;5010623;28;44769;-87